Weather History for Madison, SD

Change the Weather History Date:

Tuesday, January 8, 2013

  Actual Average Record
Temperature  
Mean Temperature 21 °F -  
Max Temperature 32 °F 18 °F 41 °F (2012)
Min Temperature 10 °F -1 °F -4 °F (2014)
Degree Days  
Heating Degree Days 44    
Moisture  
Dew Point 24 °F    
Average Humidity 100    
Maximum Humidity 100    
Minimum Humidity 100    
Precipitation  
Precipitation 0.00 in - - ()
Sea Level Pressure  
Sea Level Pressure 29.82 in    
Wind  
Wind Speed 8 mph (SW)    
Max Wind Speed 16 mph    
Max Gust Speed 21 mph    
Visibility 10 miles    
Events      
Averages and records for this station are not official NWS values.
T = Trace of Precipitation, MM = Missing Value Source: NWS Daily Summary

Daily Weather History Graph

Daily Weather History Graph

Search for Another Location

Airport:

Trip Planner

Search our weather history database for the weather conditions in past years. The results will help you decide how hot, cold, wet, or windy it might be!

Date:

Astronomy

Jan. 08, 2013 Rise Set
Actual Time 8:02 AM CST 5:08 PM CST
Civil Twilight 7:29 AM CST 5:40 PM CST
Nautical Twilight 6:53 AM CST 6:16 PM CST
Astronomical Twilight 6:19 AM CST 6:51 PM CST
Moon 4:36 AM CST (1/8) 2:11 PM CST (1/8)
Length of Visible Light 10h 10m
Length of Day
9h 05m
Waning Crescent, 13% of the Moon is Illuminated
Jan 8
Waning Crescent
Jan 11
New
Jan 18
First Quarter
Jan 26
Full
Feb 3
Last Quarter

Hourly Weather History & Observations

Time (CST) Temp. Windchill Dew Point Humidity Pressure Visibility Wind Dir Wind Speed Gust Speed Precip Events Conditions
12:20 AM 15.8 °F - 15.8 °F 100% 29.90 in 9.0 mi Calm Calm - N/A   Clear
12:40 AM 17.6 °F 9.3 °F 17.6 °F 100% 29.89 in 10.0 mi South 5.8 mph - N/A   Clear
1:00 AM 14.0 °F - 14.0 °F 100% 29.89 in 10.0 mi Calm Calm - N/A   Clear
1:20 AM 12.2 °F 0.7 °F 12.2 °F 100% 29.89 in 10.0 mi East 8.1 mph - N/A   Clear
1:40 AM 10.4 °F -0.4 °F 10.4 °F 100% 29.88 in 10.0 mi East 6.9 mph - N/A   Clear
2:00 AM 12.2 °F 2.9 °F 12.2 °F 100% 29.88 in 10.0 mi ESE 5.8 mph - N/A   Clear
2:20 AM 14.0 °F 5.1 °F 14.0 °F 100% 29.87 in 10.0 mi SSE 5.8 mph - N/A   Clear
2:40 AM 14.0 °F 5.1 °F 14.0 °F 100% 29.87 in 10.0 mi SSE 5.8 mph - N/A   Clear
3:00 AM 10.4 °F -0.4 °F 10.4 °F 100% 29.87 in 10.0 mi South 6.9 mph - N/A   Clear
3:20 AM 10.4 °F 0.8 °F 10.4 °F 100% 29.86 in 10.0 mi SSE 5.8 mph - N/A   Clear
3:40 AM 14.0 °F 3.9 °F 14.0 °F 100% 29.85 in 4.0 mi SE 6.9 mph - N/A   Clear
4:00 AM 12.2 °F 6.1 °F 12.2 °F 100% 29.85 in 3.0 mi East 3.5 mph - N/A   Clear
4:20 AM 14.0 °F 6.5 °F 14.0 °F 100% 29.84 in 4.0 mi ESE 4.6 mph - N/A   Clear
4:40 AM 12.2 °F 6.1 °F 12.2 °F 100% 29.83 in 8.0 mi East 3.5 mph - N/A   Clear
5:00 AM 10.4 °F -1.5 °F 10.4 °F 100% 29.83 in 10.0 mi SE 8.1 mph - N/A   Clear
5:20 AM 15.8 °F 5.1 °F 15.8 °F 100% 29.82 in 10.0 mi SSE 8.1 mph - N/A   Clear
5:40 AM 15.8 °F 5.1 °F 15.8 °F 100% 29.82 in 10.0 mi SSE 8.1 mph - N/A   Clear
6:00 AM 15.8 °F 5.1 °F 15.8 °F 100% 29.82 in 10.0 mi SSE 8.1 mph - N/A   Clear
6:20 AM 15.8 °F 2.7 °F 15.8 °F 100% 29.80 in 10.0 mi SSE 11.5 mph - N/A   Clear
6:40 AM 17.6 °F 5.0 °F 17.6 °F 100% 29.80 in 10.0 mi SSE 11.5 mph - N/A   Clear
7:20 AM 17.6 °F 8.2 °F 17.6 °F 100% 29.78 in 10.0 mi South 6.9 mph - N/A   Mostly Cloudy
7:40 AM 17.6 °F 9.3 °F 17.6 °F 100% 29.80 in 10.0 mi SSW 5.8 mph - N/A   Overcast
8:00 AM 17.6 °F 10.7 °F 17.6 °F 100% 29.80 in 10.0 mi SSW 4.6 mph - N/A   Overcast
8:20 AM 17.6 °F 9.3 °F 17.6 °F 100% 29.79 in 10.0 mi South 5.8 mph - N/A   Scattered Clouds
8:40 AM 19.4 °F 7.2 °F 19.4 °F 100% 29.80 in 10.0 mi South 11.5 mph - N/A   Scattered Clouds
9:00 AM 21.2 °F 10.1 °F 21.2 °F 100% 29.78 in 10.0 mi SSE 10.4 mph - N/A   Scattered Clouds
9:20 AM 21.2 °F 10.9 °F 21.2 °F 100% 29.75 in 10.0 mi South 9.2 mph - N/A   Partly Cloudy
9:40 AM 23.0 °F 11.1 °F 23.0 °F 100% 29.72 in 10.0 mi SE 12.7 mph 18.4 mph N/A   Mostly Cloudy
10:00 AM 23.0 °F 10.1 °F 23.0 °F 100% 29.72 in 10.0 mi SSE 15.0 mph - N/A   Scattered Clouds
10:20 AM 23.0 °F 12.4 °F 23.0 °F 100% 29.76 in 10.0 mi SSW 10.4 mph - N/A   Clear
10:40 AM 24.8 °F 16.1 °F 24.8 °F 100% 29.76 in 10.0 mi SSW 8.1 mph - N/A   Partly Cloudy
11:00 AM 24.8 °F 16.1 °F 24.8 °F 100% 29.74 in 10.0 mi South 8.1 mph - N/A   Mostly Cloudy
11:20 AM 24.8 °F 14.6 °F 24.8 °F 100% 29.73 in 10.0 mi South 10.4 mph - N/A   Mostly Cloudy
11:40 AM 24.8 °F 14.0 °F 24.8 °F 100% 29.70 in 10.0 mi South 11.5 mph - N/A   Clear
12:20 PM 24.8 °F 16.1 °F 24.8 °F 100% 29.69 in 10.0 mi South 8.1 mph - N/A   Partly Cloudy
12:40 PM 26.6 °F 14.7 °F 26.6 °F 100% 29.69 in 10.0 mi SW 15.0 mph 18.4 mph N/A   Partly Cloudy
1:00 PM 28.4 °F 17.0 °F 28.4 °F 100% 29.70 in 10.0 mi SW 15.0 mph 19.6 mph N/A   Clear
1:40 PM 28.4 °F 17.0 °F 28.4 °F 100% 29.70 in 10.0 mi WSW 15.0 mph - N/A   Clear
2:00 PM 28.4 °F 18.5 °F 28.4 °F 100% 29.71 in 10.0 mi WSW 11.5 mph - N/A   Clear
2:20 PM 28.4 °F 18.0 °F 28.4 °F 100% 29.72 in 10.0 mi West 12.7 mph - N/A   Clear
2:40 PM 28.4 °F 18.5 °F 28.4 °F 100% 29.72 in 10.0 mi West 11.5 mph - N/A   Clear
3:00 PM 30.2 °F 20.8 °F 30.2 °F 100% 29.73 in 10.0 mi West 11.5 mph 17.3 mph N/A   Clear
3:20 PM 32.0 °F 22.1 °F 32.0 °F 100% 29.75 in 10.0 mi WNW 13.8 mph 18.4 mph N/A   Clear
3:40 PM 32.0 °F 22.5 °F 32.0 °F 100% 29.75 in 10.0 mi WNW 12.7 mph - N/A   Clear
4:00 PM 32.0 °F 23.0 °F 32.0 °F 100% 29.76 in 10.0 mi West 11.5 mph - N/A   Clear
4:20 PM 32.0 °F 22.5 °F 32.0 °F 100% 29.78 in 10.0 mi West 12.7 mph 18.4 mph N/A   Clear
4:40 PM 30.2 °F 19.8 °F 30.2 °F 100% 29.79 in 10.0 mi West 13.8 mph 19.6 mph N/A   Clear
5:00 PM 30.2 °F 19.3 °F 30.2 °F 100% 29.80 in 10.0 mi West 15.0 mph - N/A   Clear
5:20 PM 30.2 °F 19.3 °F 30.2 °F 100% 29.81 in 10.0 mi West 15.0 mph 20.7 mph N/A   Clear
5:40 PM 32.0 °F 22.5 °F 32.0 °F 100% 29.83 in 10.0 mi West 12.7 mph - N/A   Clear
6:00 PM 32.0 °F 22.5 °F 32.0 °F 100% 29.84 in 10.0 mi West 12.7 mph 18.4 mph N/A   Clear
6:20 PM 32.0 °F 22.1 °F 32.0 °F 100% 29.85 in 10.0 mi West 13.8 mph - N/A   Clear
6:40 PM 32.0 °F 22.5 °F 32.0 °F 100% 29.86 in 10.0 mi West 12.7 mph 18.4 mph N/A   Clear
7:20 PM 32.0 °F 22.1 °F 32.0 °F 100% 29.87 in 10.0 mi West 13.8 mph 19.6 mph N/A   Clear
7:40 PM 32.0 °F 22.1 °F 32.0 °F 100% 29.88 in 10.0 mi West 13.8 mph 20.7 mph N/A   Clear
8:00 PM 32.0 °F 21.2 °F 32.0 °F 100% 29.89 in 10.0 mi West 16.1 mph 19.6 mph N/A   Scattered Clouds
8:20 PM 32.0 °F 21.6 °F 32.0 °F 100% 29.90 in 10.0 mi West 15.0 mph 19.6 mph N/A   Mostly Cloudy
8:40 PM 32.0 °F 21.6 °F 32.0 °F 100% 29.91 in 10.0 mi West 15.0 mph 18.4 mph N/A   Mostly Cloudy
9:00 PM 32.0 °F 23.0 °F 32.0 °F 100% 29.91 in 10.0 mi West 11.5 mph - N/A   Scattered Clouds
9:20 PM 32.0 °F 23.0 °F 32.0 °F 100% 29.93 in 10.0 mi West 11.5 mph - N/A   Mostly Cloudy
9:40 PM 32.0 °F 22.5 °F 32.0 °F 100% 29.94 in 10.0 mi West 12.7 mph - N/A   Overcast
10:00 PM 32.0 °F 21.6 °F 32.0 °F 100% 29.95 in 10.0 mi West 15.0 mph 19.6 mph N/A   Overcast
10:20 PM 32.0 °F 22.5 °F 32.0 °F 100% 29.96 in 10.0 mi West 12.7 mph 18.4 mph N/A   Mostly Cloudy
10:40 PM 32.0 °F 22.5 °F 32.0 °F 100% 29.97 in 10.0 mi West 12.7 mph 19.6 mph N/A   Mostly Cloudy
11:00 PM 32.0 °F 22.1 °F 32.0 °F 100% 29.98 in 10.0 mi West 13.8 mph - N/A   Mostly Cloudy
11:40 PM 30.2 °F 20.8 °F 30.2 °F 100% 30.00 in 10.0 mi West 11.5 mph - N/A   Clear